sensor_id;sensor_type;location;lat;lon;timestamp;P1;durP1;ratioP1;P2;durP2;ratioP2
15629;SDS011;7914;50.842;0.166;2023-06-10T00:01:41;18.52;;;9.93;;
15629;SDS011;7914;50.842;0.166;2023-06-10T00:04:08;18.60;;;8.73;;
15629;SDS011;7914;50.842;0.166;2023-06-10T00:06:34;20.73;;;8.70;;
15629;SDS011;7914;50.842;0.166;2023-06-10T00:09:05;24.15;;;9.93;;
15629;SDS011;7914;50.842;0.166;2023-06-10T00:11:35;21.08;;;9.70;;
15629;SDS011;7914;50.842;0.166;2023-06-10T00:14:01;19.33;;;9.43;;
15629;SDS011;7914;50.842;0.166;2023-06-10T00:16:27;20.13;;;8.45;;
15629;SDS011;7914;50.842;0.166;2023-06-10T00:18:52;21.33;;;9.55;;
15629;SDS011;7914;50.842;0.166;2023-06-10T00:21:25;19.20;;;10.05;;
15629;SDS011;7914;50.842;0.166;2023-06-10T00:23:55;22.17;;;9.75;;
15629;SDS011;7914;50.842;0.166;2023-06-10T00:26:24;24.20;;;9.25;;
15629;SDS011;7914;50.842;0.166;2023-06-10T00:28:51;22.23;;;10.90;;
15629;SDS011;7914;50.842;0.166;2023-06-10T00:31:17;21.05;;;8.70;;
15629;SDS011;7914;50.842;0.166;2023-06-10T00:33:43;21.02;;;9.40;;
15629;SDS011;7914;50.842;0.166;2023-06-10T00:36:09;19.02;;;8.90;;
15629;SDS011;7914;50.842;0.166;2023-06-10T00:41:03;21.60;;;9.20;;
15629;SDS011;7914;50.842;0.166;2023-06-10T00:43:28;19.15;;;9.00;;
15629;SDS011;7914;50.842;0.166;2023-06-10T00:45:54;20.15;;;9.70;;
15629;SDS011;7914;50.842;0.166;2023-06-10T00:48:20;22.33;;;9.35;;
15629;SDS011;7914;50.842;0.166;2023-06-10T00:50:46;19.52;;;9.80;;
15629;SDS011;7914;50.842;0.166;2023-06-10T00:53:12;19.90;;;8.90;;
15629;SDS011;7914;50.842;0.166;2023-06-10T00:55:38;25.90;;;9.05;;
15629;SDS011;7914;50.842;0.166;2023-06-10T00:58:05;27.75;;;10.15;;
15629;SDS011;7914;50.842;0.166;2023-06-10T01:00:30;19.40;;;9.00;;
15629;SDS011;7914;50.842;0.166;2023-06-10T01:02:56;20.75;;;9.40;;
15629;SDS011;7914;50.842;0.166;2023-06-10T01:05:23;23.10;;;9.45;;
15629;SDS011;7914;50.842;0.166;2023-06-10T01:10:28;22.80;;;10.55;;
15629;SDS011;7914;50.842;0.166;2023-06-10T01:13:15;23.45;;;9.15;;
15629;SDS011;7914;50.842;0.166;2023-06-10T01:15:43;26.13;;;11.57;;
15629;SDS011;7914;50.842;0.166;2023-06-10T01:18:09;19.13;;;9.35;;
15629;SDS011;7914;50.842;0.166;2023-06-10T01:20:40;23.92;;;9.30;;
15629;SDS011;7914;50.842;0.166;2023-06-10T01:23:08;22.58;;;9.82;;
15629;SDS011;7914;50.842;0.166;2023-06-10T01:25:39;26.75;;;9.98;;
15629;SDS011;7914;50.842;0.166;2023-06-10T01:31:17;19.90;;;9.43;;
15629;SDS011;7914;50.842;0.166;2023-06-10T01:33:59;16.52;;;8.90;;
15629;SDS011;7914;50.842;0.166;2023-06-10T01:38:53;17.45;;;9.55;;
15629;SDS011;7914;50.842;0.166;2023-06-10T01:41:20;22.73;;;9.77;;
15629;SDS011;7914;50.842;0.166;2023-06-10T01:43:46;19.38;;;8.88;;
15629;SDS011;7914;50.842;0.166;2023-06-10T01:46:13;23.05;;;9.65;;
15629;SDS011;7914;50.842;0.166;2023-06-10T01:48:40;23.65;;;9.95;;
15629;SDS011;7914;50.842;0.166;2023-06-10T01:51:06;22.08;;;9.77;;
15629;SDS011;7914;50.842;0.166;2023-06-10T01:53:32;23.00;;;9.93;;
15629;SDS011;7914;50.842;0.166;2023-06-10T01:55:58;19.70;;;8.98;;
15629;SDS011;7914;50.842;0.166;2023-06-10T01:58:24;17.77;;;8.68;;
15629;SDS011;7914;50.842;0.166;2023-06-10T02:00:49;21.58;;;10.38;;
15629;SDS011;7914;50.842;0.166;2023-06-10T02:03:15;24.38;;;9.60;;
15629;SDS011;7914;50.842;0.166;2023-06-10T02:05:41;23.42;;;8.82;;
15629;SDS011;7914;50.842;0.166;2023-06-10T02:08:06;25.02;;;9.60;;
15629;SDS011;7914;50.842;0.166;2023-06-10T02:10:32;17.83;;;9.05;;
15629;SDS011;7914;50.842;0.166;2023-06-10T02:12:58;26.27;;;9.85;;
15629;SDS011;7914;50.842;0.166;2023-06-10T02:15:23;20.08;;;9.80;;
15629;SDS011;7914;50.842;0.166;2023-06-10T02:17:49;22.13;;;10.35;;
15629;SDS011;7914;50.842;0.166;2023-06-10T02:20:15;16.85;;;9.20;;
15629;SDS011;7914;50.842;0.166;2023-06-10T02:22:41;24.40;;;9.27;;
15629;SDS011;7914;50.842;0.166;2023-06-10T02:25:07;23.52;;;9.55;;
15629;SDS011;7914;50.842;0.166;2023-06-10T02:27:33;22.48;;;9.98;;
15629;SDS011;7914;50.842;0.166;2023-06-10T02:29:59;25.48;;;11.05;;
15629;SDS011;7914;50.842;0.166;2023-06-10T02:32:25;25.92;;;10.70;;
15629;SDS011;7914;50.842;0.166;2023-06-10T02:34:51;20.40;;;10.05;;
15629;SDS011;7914;50.842;0.166;2023-06-10T02:37:17;23.63;;;10.25;;
15629;SDS011;7914;50.842;0.166;2023-06-10T02:39:43;27.02;;;10.05;;
15629;SDS011;7914;50.842;0.166;2023-06-10T02:42:08;26.50;;;10.48;;
15629;SDS011;7914;50.842;0.166;2023-06-10T02:44:35;24.15;;;10.25;;
15629;SDS011;7914;50.842;0.166;2023-06-10T02:47:01;19.90;;;10.00;;
15629;SDS011;7914;50.842;0.166;2023-06-10T02:49:26;22.35;;;8.52;;
15629;SDS011;7914;50.842;0.166;2023-06-10T02:54:24;19.70;;;9.35;;
15629;SDS011;7914;50.842;0.166;2023-06-10T02:56:50;20.63;;;9.63;;
15629;SDS011;7914;50.842;0.166;2023-06-10T02:59:17;21.95;;;10.07;;
15629;SDS011;7914;50.842;0.166;2023-06-10T03:01:43;23.33;;;9.75;;
15629;SDS011;7914;50.842;0.166;2023-06-10T03:04:08;23.33;;;10.45;;
15629;SDS011;7914;50.842;0.166;2023-06-10T03:06:35;27.10;;;9.50;;
15629;SDS011;7914;50.842;0.166;2023-06-10T03:09:01;23.02;;;11.13;;
15629;SDS011;7914;50.842;0.166;2023-06-10T03:13:56;20.60;;;9.65;;
15629;SDS011;7914;50.842;0.166;2023-06-10T03:16:22;22.67;;;9.07;;
15629;SDS011;7914;50.842;0.166;2023-06-10T03:18:50;21.77;;;9.65;;
15629;SDS011;7914;50.842;0.166;2023-06-10T03:21:17;23.13;;;10.07;;
15629;SDS011;7914;50.842;0.166;2023-06-10T03:23:43;24.42;;;10.77;;
15629;SDS011;7914;50.842;0.166;2023-06-10T03:26:08;24.42;;;10.15;;
15629;SDS011;7914;50.842;0.166;2023-06-10T03:28:35;25.35;;;11.00;;
15629;SDS011;7914;50.842;0.166;2023-06-10T03:31:01;20.27;;;9.77;;
15629;SDS011;7914;50.842;0.166;2023-06-10T03:33:27;24.10;;;10.15;;
15629;SDS011;7914;50.842;0.166;2023-06-10T03:35:52;27.77;;;10.43;;
15629;SDS011;7914;50.842;0.166;2023-06-10T03:38:18;24.35;;;9.73;;
15629;SDS011;7914;50.842;0.166;2023-06-10T03:40:44;22.17;;;9.77;;
15629;SDS011;7914;50.842;0.166;2023-06-10T03:43:10;21.02;;;10.40;;
15629;SDS011;7914;50.842;0.166;2023-06-10T03:45:37;24.88;;;10.45;;
15629;SDS011;7914;50.842;0.166;2023-06-10T03:48:03;27.17;;;11.23;;
15629;SDS011;7914;50.842;0.166;2023-06-10T03:50:29;23.75;;;10.07;;
15629;SDS011;7914;50.842;0.166;2023-06-10T03:52:55;22.08;;;9.38;;
15629;SDS011;7914;50.842;0.166;2023-06-10T03:55:20;22.33;;;10.02;;
15629;SDS011;7914;50.842;0.166;2023-06-10T03:57:47;19.23;;;9.48;;
15629;SDS011;7914;50.842;0.166;2023-06-10T04:00:14;22.88;;;9.85;;
15629;SDS011;7914;50.842;0.166;2023-06-10T04:02:41;24.52;;;9.85;;
15629;SDS011;7914;50.842;0.166;2023-06-10T04:05:17;25.70;;;9.82;;
15629;SDS011;7914;50.842;0.166;2023-06-10T04:07:43;24.25;;;10.45;;
15629;SDS011;7914;50.842;0.166;2023-06-10T04:10:09;24.75;;;10.05;;
15629;SDS011;7914;50.842;0.166;2023-06-10T04:12:36;24.48;;;9.75;;
15629;SDS011;7914;50.842;0.166;2023-06-10T04:15:03;22.00;;;9.85;;
15629;SDS011;7914;50.842;0.166;2023-06-10T04:17:30;25.15;;;10.15;;
15629;SDS011;7914;50.842;0.166;2023-06-10T04:19:55;22.13;;;9.80;;
15629;SDS011;7914;50.842;0.166;2023-06-10T04:22:21;25.02;;;9.75;;
15629;SDS011;7914;50.842;0.166;2023-06-10T04:24:48;24.13;;;9.25;;
15629;SDS011;7914;50.842;0.166;2023-06-10T04:27:14;21.67;;;8.60;;
15629;SDS011;7914;50.842;0.166;2023-06-10T04:29:40;23.80;;;9.77;;
15629;SDS011;7914;50.842;0.166;2023-06-10T04:32:06;18.38;;;9.48;;
15629;SDS011;7914;50.842;0.166;2023-06-10T04:34:35;20.60;;;9.02;;
15629;SDS011;7914;50.842;0.166;2023-06-10T04:37:04;24.95;;;10.38;;
15629;SDS011;7914;50.842;0.166;2023-06-10T04:39:30;22.95;;;8.35;;
15629;SDS011;7914;50.842;0.166;2023-06-10T04:41:59;23.23;;;8.00;;
15629;SDS011;7914;50.842;0.166;2023-06-10T04:44:25;19.50;;;8.40;;
15629;SDS011;7914;50.842;0.166;2023-06-10T04:46:51;23.75;;;9.77;;
15629;SDS011;7914;50.842;0.166;2023-06-10T04:49:16;22.33;;;9.18;;
15629;SDS011;7914;50.842;0.166;2023-06-10T04:51:42;19.55;;;9.38;;
15629;SDS011;7914;50.842;0.166;2023-06-10T04:54:08;21.17;;;8.60;;
15629;SDS011;7914;50.842;0.166;2023-06-10T04:56:33;21.08;;;9.70;;
15629;SDS011;7914;50.842;0.166;2023-06-10T04:58:59;19.60;;;9.32;;
15629;SDS011;7914;50.842;0.166;2023-06-10T05:01:25;20.17;;;8.18;;
15629;SDS011;7914;50.842;0.166;2023-06-10T05:03:52;16.83;;;8.23;;
15629;SDS011;7914;50.842;0.166;2023-06-10T05:06:18;17.15;;;8.07;;
15629;SDS011;7914;50.842;0.166;2023-06-10T05:08:46;15.68;;;6.90;;
15629;SDS011;7914;50.842;0.166;2023-06-10T05:11:12;21.17;;;7.93;;
15629;SDS011;7914;50.842;0.166;2023-06-10T05:13:37;17.25;;;7.85;;
15629;SDS011;7914;50.842;0.166;2023-06-10T05:16:05;14.52;;;7.30;;
15629;SDS011;7914;50.842;0.166;2023-06-10T05:18:31;17.13;;;7.53;;
15629;SDS011;7914;50.842;0.166;2023-06-10T05:20:57;17.65;;;7.28;;
15629;SDS011;7914;50.842;0.166;2023-06-10T05:23:22;18.02;;;6.68;;
15629;SDS011;7914;50.842;0.166;2023-06-10T05:25:48;17.45;;;7.38;;
15629;SDS011;7914;50.842;0.166;2023-06-10T05:28:14;16.92;;;7.53;;
15629;SDS011;7914;50.842;0.166;2023-06-10T05:30:40;14.88;;;8.20;;
15629;SDS011;7914;50.842;0.166;2023-06-10T05:33:05;20.35;;;7.90;;
15629;SDS011;7914;50.842;0.166;2023-06-10T05:35:31;17.58;;;7.88;;
15629;SDS011;7914;50.842;0.166;2023-06-10T05:37:58;16.30;;;7.68;;
15629;SDS011;7914;50.842;0.166;2023-06-10T05:40:24;15.52;;;7.05;;
15629;SDS011;7914;50.842;0.166;2023-06-10T05:42:53;18.02;;;7.05;;
15629;SDS011;7914;50.842;0.166;2023-06-10T05:45:18;17.00;;;7.07;;
15629;SDS011;7914;50.842;0.166;2023-06-10T05:47:44;18.20;;;7.35;;
15629;SDS011;7914;50.842;0.166;2023-06-10T05:50:10;17.60;;;8.50;;
15629;SDS011;7914;50.842;0.166;2023-06-10T05:52:36;13.52;;;7.25;;
15629;SDS011;7914;50.842;0.166;2023-06-10T05:55:02;19.13;;;7.03;;
15629;SDS011;7914;50.842;0.166;2023-06-10T05:57:28;17.95;;;7.78;;
15629;SDS011;7914;50.842;0.166;2023-06-10T05:59:54;19.08;;;7.70;;
15629;SDS011;7914;50.842;0.166;2023-06-10T06:02:20;17.83;;;7.35;;
15629;SDS011;7914;50.842;0.166;2023-06-10T06:04:46;18.60;;;8.30;;
15629;SDS011;7914;50.842;0.166;2023-06-10T06:07:12;16.67;;;8.05;;
15629;SDS011;7914;50.842;0.166;2023-06-10T06:09:37;15.13;;;7.18;;
15629;SDS011;7914;50.842;0.166;2023-06-10T06:12:03;20.95;;;8.27;;
15629;SDS011;7914;50.842;0.166;2023-06-10T06:14:31;19.13;;;8.48;;
15629;SDS011;7914;50.842;0.166;2023-06-10T06:16:57;15.93;;;7.18;;
15629;SDS011;7914;50.842;0.166;2023-06-10T06:19:23;14.73;;;8.25;;
15629;SDS011;7914;50.842;0.166;2023-06-10T06:21:49;17.48;;;7.97;;
15629;SDS011;7914;50.842;0.166;2023-06-10T06:24:17;17.63;;;8.70;;
15629;SDS011;7914;50.842;0.166;2023-06-10T06:26:43;19.63;;;8.45;;
15629;SDS011;7914;50.842;0.166;2023-06-10T06:29:09;17.80;;;8.38;;
15629;SDS011;7914;50.842;0.166;2023-06-10T06:31:35;20.45;;;8.52;;
15629;SDS011;7914;50.842;0.166;2023-06-10T06:34:00;15.10;;;7.93;;
15629;SDS011;7914;50.842;0.166;2023-06-10T06:36:27;20.52;;;7.82;;
15629;SDS011;7914;50.842;0.166;2023-06-10T06:38:53;20.27;;;8.30;;
15629;SDS011;7914;50.842;0.166;2023-06-10T06:41:18;15.30;;;7.38;;
15629;SDS011;7914;50.842;0.166;2023-06-10T06:43:44;17.85;;;8.80;;
15629;SDS011;7914;50.842;0.166;2023-06-10T06:46:10;15.13;;;8.48;;
15629;SDS011;7914;50.842;0.166;2023-06-10T06:48:36;17.80;;;9.02;;
15629;SDS011;7914;50.842;0.166;2023-06-10T06:51:06;16.42;;;8.45;;
15629;SDS011;7914;50.842;0.166;2023-06-10T06:53:31;17.80;;;9.10;;
15629;SDS011;7914;50.842;0.166;2023-06-10T06:55:57;16.17;;;8.25;;
15629;SDS011;7914;50.842;0.166;2023-06-10T06:58:23;18.65;;;7.80;;
15629;SDS011;7914;50.842;0.166;2023-06-10T07:00:48;16.40;;;7.80;;
15629;SDS011;7914;50.842;0.166;2023-06-10T07:03:14;14.77;;;7.53;;
15629;SDS011;7914;50.842;0.166;2023-06-10T07:08:48;14.63;;;7.32;;
15629;SDS011;7914;50.842;0.166;2023-06-10T07:11:15;14.32;;;7.25;;
15629;SDS011;7914;50.842;0.166;2023-06-10T07:13:42;18.38;;;8.18;;
15629;SDS011;7914;50.842;0.166;2023-06-10T07:16:10;17.70;;;8.25;;
15629;SDS011;7914;50.842;0.166;2023-06-10T07:18:35;14.82;;;7.85;;
15629;SDS011;7914;50.842;0.166;2023-06-10T07:21:01;13.48;;;6.40;;
15629;SDS011;7914;50.842;0.166;2023-06-10T07:23:27;12.85;;;6.95;;
15629;SDS011;7914;50.842;0.166;2023-06-10T07:25:52;13.05;;;6.55;;
15629;SDS011;7914;50.842;0.166;2023-06-10T07:28:18;12.95;;;7.25;;
15629;SDS011;7914;50.842;0.166;2023-06-10T07:30:44;13.30;;;6.90;;
15629;SDS011;7914;50.842;0.166;2023-06-10T07:33:10;11.57;;;6.55;;
15629;SDS011;7914;50.842;0.166;2023-06-10T07:35:36;14.25;;;7.38;;
15629;SDS011;7914;50.842;0.166;2023-06-10T07:38:01;12.05;;;6.78;;
15629;SDS011;7914;50.842;0.166;2023-06-10T07:40:27;11.85;;;6.47;;
15629;SDS011;7914;50.842;0.166;2023-06-10T07:42:53;16.30;;;7.10;;
15629;SDS011;7914;50.842;0.166;2023-06-10T07:45:18;11.18;;;6.65;;
15629;SDS011;7914;50.842;0.166;2023-06-10T07:47:44;13.43;;;6.90;;
15629;SDS011;7914;50.842;0.166;2023-06-10T07:50:10;11.35;;;6.18;;
15629;SDS011;7914;50.842;0.166;2023-06-10T07:52:35;13.07;;;6.57;;
15629;SDS011;7914;50.842;0.166;2023-06-10T07:55:02;10.68;;;7.00;;
15629;SDS011;7914;50.842;0.166;2023-06-10T07:57:28;16.08;;;7.28;;
15629;SDS011;7914;50.842;0.166;2023-06-10T07:59:53;13.43;;;7.15;;
15629;SDS011;7914;50.842;0.166;2023-06-10T08:02:20;10.30;;;6.38;;
15629;SDS011;7914;50.842;0.166;2023-06-10T08:04:45;11.48;;;6.10;;
15629;SDS011;7914;50.842;0.166;2023-06-10T08:07:11;13.35;;;6.03;;
15629;SDS011;7914;50.842;0.166;2023-06-10T08:09:37;12.95;;;7.05;;
15629;SDS011;7914;50.842;0.166;2023-06-10T08:12:03;15.13;;;7.30;;
15629;SDS011;7914;50.842;0.166;2023-06-10T08:14:29;12.68;;;5.80;;
15629;SDS011;7914;50.842;0.166;2023-06-10T08:16:54;10.45;;;6.28;;
15629;SDS011;7914;50.842;0.166;2023-06-10T08:19:20;10.38;;;5.25;;
15629;SDS011;7914;50.842;0.166;2023-06-10T08:21:46;12.77;;;6.65;;
15629;SDS011;7914;50.842;0.166;2023-06-10T08:24:12;11.50;;;6.03;;
15629;SDS011;7914;50.842;0.166;2023-06-10T08:26:38;10.70;;;6.80;;
15629;SDS011;7914;50.842;0.166;2023-06-10T08:29:05;13.82;;;7.55;;
15629;SDS011;7914;50.842;0.166;2023-06-10T08:31:30;14.15;;;7.38;;
15629;SDS011;7914;50.842;0.166;2023-06-10T08:33:56;11.80;;;6.45;;
15629;SDS011;7914;50.842;0.166;2023-06-10T08:36:21;10.73;;;6.85;;
15629;SDS011;7914;50.842;0.166;2023-06-10T08:38:47;12.30;;;6.68;;
15629;SDS011;7914;50.842;0.166;2023-06-10T08:41:14;10.13;;;6.00;;
15629;SDS011;7914;50.842;0.166;2023-06-10T08:43:48;21.65;;;7.63;;
15629;SDS011;7914;50.842;0.166;2023-06-10T08:46:34;10.65;;;6.60;;
15629;SDS011;7914;50.842;0.166;2023-06-10T08:49:02;11.63;;;7.03;;
15629;SDS011;7914;50.842;0.166;2023-06-10T08:51:32;11.05;;;5.93;;
15629;SDS011;7914;50.842;0.166;2023-06-10T08:54:04;9.60;;;5.93;;
15629;SDS011;7914;50.842;0.166;2023-06-10T08:56:37;8.77;;;5.72;;
15629;SDS011;7914;50.842;0.166;2023-06-10T08:59:05;10.32;;;5.90;;
15629;SDS011;7914;50.842;0.166;2023-06-10T09:01:31;11.43;;;6.10;;
15629;SDS011;7914;50.842;0.166;2023-06-10T09:03:58;11.35;;;5.97;;
15629;SDS011;7914;50.842;0.166;2023-06-10T09:06:25;8.88;;;6.47;;
15629;SDS011;7914;50.842;0.166;2023-06-10T09:08:57;8.75;;;5.97;;
15629;SDS011;7914;50.842;0.166;2023-06-10T09:11:23;10.20;;;6.10;;
15629;SDS011;7914;50.842;0.166;2023-06-10T09:13:50;9.95;;;6.53;;
15629;SDS011;7914;50.842;0.166;2023-06-10T09:16:15;10.82;;;6.80;;
15629;SDS011;7914;50.842;0.166;2023-06-10T09:18:45;10.07;;;6.90;;
15629;SDS011;7914;50.842;0.166;2023-06-10T09:21:10;10.52;;;6.80;;
15629;SDS011;7914;50.842;0.166;2023-06-10T09:23:37;14.57;;;7.75;;
15629;SDS011;7914;50.842;0.166;2023-06-10T09:26:02;9.77;;;6.97;;
15629;SDS011;7914;50.842;0.166;2023-06-10T09:28:34;10.90;;;6.90;;
15629;SDS011;7914;50.842;0.166;2023-06-10T09:31:03;10.15;;;6.63;;
15629;SDS011;7914;50.842;0.166;2023-06-10T09:33:33;10.05;;;6.97;;
15629;SDS011;7914;50.842;0.166;2023-06-10T09:36:03;11.95;;;6.72;;
15629;SDS011;7914;50.842;0.166;2023-06-10T09:38:30;8.75;;;5.97;;
15629;SDS011;7914;50.842;0.166;2023-06-10T09:40:57;14.40;;;7.03;;
15629;SDS011;7914;50.842;0.166;2023-06-10T09:43:23;10.70;;;7.63;;
15629;SDS011;7914;50.842;0.166;2023-06-10T09:46:03;10.68;;;7.05;;
15629;SDS011;7914;50.842;0.166;2023-06-10T09:48:28;12.80;;;6.85;;
15629;SDS011;7914;50.842;0.166;2023-06-10T09:50:54;10.95;;;7.55;;
15629;SDS011;7914;50.842;0.166;2023-06-10T09:53:20;12.85;;;7.80;;
15629;SDS011;7914;50.842;0.166;2023-06-10T09:55:46;11.75;;;7.53;;
15629;SDS011;7914;50.842;0.166;2023-06-10T09:58:11;9.95;;;7.43;;
15629;SDS011;7914;50.842;0.166;2023-06-10T10:00:37;10.50;;;6.18;;
15629;SDS011;7914;50.842;0.166;2023-06-10T10:03:03;10.68;;;7.32;;
15629;SDS011;7914;50.842;0.166;2023-06-10T10:05:28;11.90;;;6.30;;
15629;SDS011;7914;50.842;0.166;2023-06-10T10:07:55;12.13;;;7.03;;
15629;SDS011;7914;50.842;0.166;2023-06-10T10:10:21;12.07;;;6.57;;
15629;SDS011;7914;50.842;0.166;2023-06-10T10:12:48;11.90;;;6.80;;
15629;SDS011;7914;50.842;0.166;2023-06-10T10:15:28;16.77;;;7.97;;
15629;SDS011;7914;50.842;0.166;2023-06-10T10:20:31;10.75;;;7.35;;
15629;SDS011;7914;50.842;0.166;2023-06-10T10:23:03;11.05;;;7.13;;
15629;SDS011;7914;50.842;0.166;2023-06-10T10:25:32;10.30;;;6.72;;
15629;SDS011;7914;50.842;0.166;2023-06-10T10:28:12;9.13;;;6.35;;
15629;SDS011;7914;50.842;0.166;2023-06-10T10:30:41;10.48;;;7.22;;
15629;SDS011;7914;50.842;0.166;2023-06-10T10:33:12;10.80;;;7.30;;
15629;SDS011;7914;50.842;0.166;2023-06-10T10:35:41;10.55;;;7.32;;
15629;SDS011;7914;50.842;0.166;2023-06-10T10:38:08;14.10;;;6.78;;
15629;SDS011;7914;50.842;0.166;2023-06-10T10:40:35;12.63;;;7.78;;
15629;SDS011;7914;50.842;0.166;2023-06-10T10:43:02;12.20;;;6.75;;
15629;SDS011;7914;50.842;0.166;2023-06-10T10:45:30;10.13;;;7.07;;
15629;SDS011;7914;50.842;0.166;2023-06-10T10:47:58;12.15;;;7.22;;
15629;SDS011;7914;50.842;0.166;2023-06-10T10:50:34;13.68;;;7.25;;
15629;SDS011;7914;50.842;0.166;2023-06-10T10:53:00;14.20;;;8.27;;
15629;SDS011;7914;50.842;0.166;2023-06-10T10:55:27;11.63;;;7.05;;
15629;SDS011;7914;50.842;0.166;2023-06-10T10:58:06;9.15;;;7.30;;
15629;SDS011;7914;50.842;0.166;2023-06-10T11:00:34;10.38;;;5.85;;
15629;SDS011;7914;50.842;0.166;2023-06-10T11:03:14;11.90;;;7.82;;
15629;SDS011;7914;50.842;0.166;2023-06-10T11:05:42;9.82;;;7.50;;
15629;SDS011;7914;50.842;0.166;2023-06-10T11:08:13;9.70;;;7.13;;
15629;SDS011;7914;50.842;0.166;2023-06-10T11:10:40;12.18;;;7.57;;
15629;SDS011;7914;50.842;0.166;2023-06-10T11:13:15;10.38;;;6.75;;
15629;SDS011;7914;50.842;0.166;2023-06-10T11:15:44;9.57;;;6.30;;
15629;SDS011;7914;50.842;0.166;2023-06-10T11:20:51;11.45;;;7.50;;
15629;SDS011;7914;50.842;0.166;2023-06-10T11:29:00;9.35;;;6.05;;
15629;SDS011;7914;50.842;0.166;2023-06-10T11:34:26;9.57;;;5.75;;
15629;SDS011;7914;50.842;0.166;2023-06-10T11:36:52;9.50;;;6.57;;
15629;SDS011;7914;50.842;0.166;2023-06-10T11:39:19;10.50;;;6.53;;
15629;SDS011;7914;50.842;0.166;2023-06-10T11:41:45;9.55;;;6.65;;
15629;SDS011;7914;50.842;0.166;2023-06-10T11:44:12;12.68;;;6.70;;
15629;SDS011;7914;50.842;0.166;2023-06-10T11:46:39;9.30;;;5.95;;
15629;SDS011;7914;50.842;0.166;2023-06-10T11:49:07;11.60;;;6.20;;
15629;SDS011;7914;50.842;0.166;2023-06-10T11:51:34;12.13;;;6.80;;
15629;SDS011;7914;50.842;0.166;2023-06-10T11:54:03;12.07;;;6.43;;
15629;SDS011;7914;50.842;0.166;2023-06-10T11:56:29;8.20;;;5.63;;
15629;SDS011;7914;50.842;0.166;2023-06-10T11:58:57;9.95;;;6.22;;
15629;SDS011;7914;50.842;0.166;2023-06-10T12:01:26;10.43;;;5.90;;
15629;SDS011;7914;50.842;0.166;2023-06-10T12:04:05;8.70;;;4.90;;
15629;SDS011;7914;50.842;0.166;2023-06-10T12:06:45;7.93;;;5.65;;
15629;SDS011;7914;50.842;0.166;2023-06-10T12:09:24;9.65;;;4.53;;
15629;SDS011;7914;50.842;0.166;2023-06-10T12:11:53;9.48;;;5.57;;
15629;SDS011;7914;50.842;0.166;2023-06-10T12:17:20;9.30;;;5.78;;
15629;SDS011;7914;50.842;0.166;2023-06-10T12:19:47;7.95;;;5.13;;
15629;SDS011;7914;50.842;0.166;2023-06-10T12:22:13;10.00;;;6.05;;
15629;SDS011;7914;50.842;0.166;2023-06-10T12:27:32;10.00;;;6.78;;
15629;SDS011;7914;50.842;0.166;2023-06-10T12:29:59;8.82;;;6.10;;
15629;SDS011;7914;50.842;0.166;2023-06-10T12:32:35;9.05;;;6.20;;
15629;SDS011;7914;50.842;0.166;2023-06-10T12:35:04;11.00;;;6.90;;
15629;SDS011;7914;50.842;0.166;2023-06-10T12:37:31;9.77;;;6.47;;
15629;SDS011;7914;50.842;0.166;2023-06-10T12:40:00;9.40;;;6.47;;
15629;SDS011;7914;50.842;0.166;2023-06-10T12:42:37;10.57;;;7.10;;
15629;SDS011;7914;50.842;0.166;2023-06-10T12:45:03;12.65;;;7.00;;
15629;SDS011;7914;50.842;0.166;2023-06-10T12:47:31;11.35;;;7.32;;
15629;SDS011;7914;50.842;0.166;2023-06-10T12:50:00;10.18;;;7.03;;
15629;SDS011;7914;50.842;0.166;2023-06-10T12:52:26;9.05;;;6.68;;
15629;SDS011;7914;50.842;0.166;2023-06-10T12:54:53;11.30;;;7.88;;
15629;SDS011;7914;50.842;0.166;2023-06-10T12:57:20;9.90;;;7.05;;
15629;SDS011;7914;50.842;0.166;2023-06-10T12:59:46;10.52;;;7.53;;
15629;SDS011;7914;50.842;0.166;2023-06-10T13:02:17;10.95;;;7.50;;
15629;SDS011;7914;50.842;0.166;2023-06-10T13:04:45;10.95;;;7.07;;
15629;SDS011;7914;50.842;0.166;2023-06-10T13:07:12;14.10;;;7.90;;
15629;SDS011;7914;50.842;0.166;2023-06-10T13:09:38;10.15;;;7.80;;
15629;SDS011;7914;50.842;0.166;2023-06-10T13:12:04;10.57;;;7.10;;
15629;SDS011;7914;50.842;0.166;2023-06-10T13:14:30;11.20;;;6.90;;
15629;SDS011;7914;50.842;0.166;2023-06-10T13:16:56;11.70;;;7.90;;
15629;SDS011;7914;50.842;0.166;2023-06-10T13:19:22;14.45;;;7.40;;
15629;SDS011;7914;50.842;0.166;2023-06-10T13:21:48;9.93;;;7.68;;
15629;SDS011;7914;50.842;0.166;2023-06-10T13:24:13;12.50;;;7.80;;
15629;SDS011;7914;50.842;0.166;2023-06-10T13:26:39;12.85;;;7.72;;
15629;SDS011;7914;50.842;0.166;2023-06-10T13:29:05;15.55;;;7.93;;
15629;SDS011;7914;50.842;0.166;2023-06-10T13:31:33;11.35;;;7.90;;
15629;SDS011;7914;50.842;0.166;2023-06-10T13:34:00;11.05;;;7.53;;
15629;SDS011;7914;50.842;0.166;2023-06-10T13:36:25;9.55;;;7.38;;
15629;SDS011;7914;50.842;0.166;2023-06-10T13:38:51;10.50;;;6.70;;
15629;SDS011;7914;50.842;0.166;2023-06-10T13:41:17;11.77;;;7.88;;
15629;SDS011;7914;50.842;0.166;2023-06-10T13:43:43;11.25;;;7.50;;
15629;SDS011;7914;50.842;0.166;2023-06-10T13:46:09;11.10;;;7.72;;
15629;SDS011;7914;50.842;0.166;2023-06-10T13:48:35;12.10;;;8.38;;
15629;SDS011;7914;50.842;0.166;2023-06-10T13:51:01;11.25;;;8.05;;
15629;SDS011;7914;50.842;0.166;2023-06-10T13:53:27;14.32;;;9.43;;
15629;SDS011;7914;50.842;0.166;2023-06-10T13:55:53;13.15;;;9.07;;
15629;SDS011;7914;50.842;0.166;2023-06-10T13:58:18;14.35;;;9.30;;
15629;SDS011;7914;50.842;0.166;2023-06-10T14:00:44;16.27;;;9.82;;
15629;SDS011;7914;50.842;0.166;2023-06-10T14:03:11;16.63;;;10.27;;
15629;SDS011;7914;50.842;0.166;2023-06-10T14:05:37;11.82;;;8.85;;
15629;SDS011;7914;50.842;0.166;2023-06-10T14:08:04;10.63;;;7.60;;
15629;SDS011;7914;50.842;0.166;2023-06-10T14:10:30;10.13;;;8.38;;
15629;SDS011;7914;50.842;0.166;2023-06-10T14:12:55;11.25;;;8.68;;
15629;SDS011;7914;50.842;0.166;2023-06-10T14:15:21;14.20;;;8.95;;
15629;SDS011;7914;50.842;0.166;2023-06-10T14:17:47;11.20;;;8.15;;
15629;SDS011;7914;50.842;0.166;2023-06-10T14:20:14;17.15;;;10.23;;
15629;SDS011;7914;50.842;0.166;2023-06-10T14:22:40;13.30;;;8.00;;
15629;SDS011;7914;50.842;0.166;2023-06-10T14:25:05;11.45;;;8.23;;
15629;SDS011;7914;50.842;0.166;2023-06-10T14:27:31;11.80;;;7.28;;
15629;SDS011;7914;50.842;0.166;2023-06-10T14:29:57;11.25;;;7.72;;
15629;SDS011;7914;50.842;0.166;2023-06-10T14:32:23;12.05;;;8.38;;
15629;SDS011;7914;50.842;0.166;2023-06-10T14:34:54;11.57;;;7.68;;
15629;SDS011;7914;50.842;0.166;2023-06-10T14:37:20;16.95;;;10.10;;
15629;SDS011;7914;50.842;0.166;2023-06-10T14:39:46;13.18;;;8.25;;
15629;SDS011;7914;50.842;0.166;2023-06-10T14:42:12;11.32;;;7.97;;
15629;SDS011;7914;50.842;0.166;2023-06-10T14:44:37;12.80;;;8.25;;
15629;SDS011;7914;50.842;0.166;2023-06-10T14:47:03;9.52;;;6.38;;
15629;SDS011;7914;50.842;0.166;2023-06-10T14:49:29;10.20;;;7.45;;
15629;SDS011;7914;50.842;0.166;2023-06-10T14:51:55;9.85;;;6.82;;
15629;SDS011;7914;50.842;0.166;2023-06-10T14:54:20;9.38;;;7.03;;
15629;SDS011;7914;50.842;0.166;2023-06-10T14:56:46;12.77;;;8.70;;
15629;SDS011;7914;50.842;0.166;2023-06-10T14:59:12;11.98;;;7.60;;
15629;SDS011;7914;50.842;0.166;2023-06-10T15:01:38;11.95;;;7.88;;
15629;SDS011;7914;50.842;0.166;2023-06-10T15:04:04;13.85;;;6.97;;
15629;SDS011;7914;50.842;0.166;2023-06-10T15:06:33;13.10;;;7.70;;
15629;SDS011;7914;50.842;0.166;2023-06-10T15:09:00;10.93;;;6.97;;
15629;SDS011;7914;50.842;0.166;2023-06-10T15:11:25;9.82;;;6.47;;
15629;SDS011;7914;50.842;0.166;2023-06-10T15:13:51;10.88;;;6.93;;
15629;SDS011;7914;50.842;0.166;2023-06-10T15:16:17;14.27;;;8.38;;
15629;SDS011;7914;50.842;0.166;2023-06-10T15:18:42;11.30;;;7.82;;
15629;SDS011;7914;50.842;0.166;2023-06-10T15:21:08;10.25;;;7.03;;
15629;SDS011;7914;50.842;0.166;2023-06-10T15:23:34;11.80;;;6.97;;
15629;SDS011;7914;50.842;0.166;2023-06-10T15:26:12;14.27;;;7.43;;